LROD

Details ICAO LROD (OMR)
Name ORADEA
Region Romania
Timezone Europe/Bucharest (UTC+3.0)
Plans Departing 23
Arriving 30
Stats Elevation 465 ft / 142 m (AMSL)
Location 47.025323° 21.902410°
Runways 1
Magnetic Variation 5.288° E
Sunrise 2018-05-27 02:46:22 UTC / 2018-05-27 05:46:22 Local
Sunset 2018-05-27 18:15:35 UTC / 2018-05-27 21:15:35 Local
Advertisement - Login to hide

Runways

ID Width Length Bearing (true) Bearing (mag) Surface Threshold Offset Overrun Length
01 98 ft / 30 m 5,862 ft / 1,787 m 11.12° 5.83° Concrete 0 ft / 0 m 0 ft / 0 m
19 98 ft / 30 m 5,862 ft / 1,787 m 191.13° 185.84° Concrete 0 ft / 0 m 0 ft / 0 m

Approach Navaids

Runway Type Ident Frequency Range Bearing (true) Bearing (mag) Slope Elevation
19 Localiser IOD 109.50 MHz 18 nm / 33 km 191.11° 185.83° - 450 ft / 137 m (AMSL)
19 Glidescope IOD 109.50 MHz 10 nm / 19 km 191.13° 185.84° 2.70° 450 ft / 137 m (AMSL)

Map

Weather


0- 5 10 15 20 25 30 35+ Temperature / ° C

Clouds and Precipitation
Forecast for 2018-05-27 12:00 UTC. Updated 42 minutes ago

Ground ~20,000 ft ~40,000 ft Winds

METAR

LROD 271200Z 22005KT 9999 -TSRA FEW040CB SCT045 26/16 Q1020

TAF

Not found

Frequencies

Tower 120.20 MHz TWR
Approach 120.20 MHz APP
Warning: Do not use this data for real-world aviation or navigation. No guarantee of current accuracy is given.